createdAt,value
2022-12-23T02:31:10.135Z,25.00
2022-12-23T02:32:10.771Z,25.00
2022-12-23T02:33:11.184Z,25.00
2022-12-23T02:34:10.568Z,25.00
2022-12-23T02:35:10.806Z,25.00
2022-12-23T02:36:10.429Z,25.00
2022-12-23T02:37:10.226Z,4.44
2022-12-23T02:38:10.438Z,0.00
2022-12-23T02:39:10.103Z,0.00
2022-12-23T02:40:10.317Z,5.55
2022-12-23T02:41:10.148Z,21.48
2022-12-23T02:42:10.220Z,26.58
2022-12-23T02:43:11.319Z,25.00
2022-12-23T02:44:09.910Z,25.00
2022-12-23T02:45:09.843Z,25.00
2022-12-23T02:46:10.083Z,25.00
2022-12-23T02:47:10.179Z,24.97
2022-12-23T02:48:10.432Z,25.00
2022-12-23T02:49:10.140Z,26.93
2022-12-23T02:50:09.572Z,23.91
2022-12-23T02:51:09.772Z,26.71
2022-12-23T02:52:09.505Z,25.00
2022-12-23T02:53:09.584Z,25.42
2022-12-23T02:54:09.624Z,26.75
2022-12-23T02:55:09.434Z,25.51
2022-12-23T02:56:10.173Z,30.40
2022-12-23T02:57:09.605Z,27.74
2022-12-23T02:58:09.376Z,27.29
2022-12-23T02:59:09.851Z,26.58
2022-12-23T03:00:09.272Z,25.31
2022-12-23T03:01:09.710Z,26.87
2022-12-23T03:02:09.446Z,28.30
2022-12-23T03:03:09.268Z,25.00
2022-12-23T03:04:10.965Z,28.87
2022-12-23T03:05:09.208Z,25.35
2022-12-23T03:06:09.080Z,26.03
2022-12-23T03:07:11.418Z,27.63
2022-12-23T03:08:09.813Z,27.80
2022-12-23T03:09:09.665Z,24.64
2022-12-23T03:10:09.542Z,21.29
2022-12-23T03:11:10.080Z,22.79
2022-12-23T03:12:09.138Z,21.89
2022-12-23T03:13:09.601Z,25.00
2022-12-23T03:14:09.296Z,31.16
2022-12-23T03:15:08.771Z,25.85
2022-12-23T03:16:09.202Z,31.09
2022-12-23T03:17:09.024Z,27.60
2022-12-23T03:18:08.890Z,25.00
2022-12-23T03:19:08.726Z,27.98
2022-12-23T03:20:08.576Z,25.00
2022-12-23T03:21:10.237Z,25.00
2022-12-23T03:22:08.814Z,26.42
2022-12-23T03:23:08.599Z,26.53
2022-12-23T03:24:08.765Z,27.05
2022-12-23T03:25:08.665Z,25.50
2022-12-23T03:26:08.923Z,22.91
2022-12-23T03:27:08.413Z,22.06
2022-12-23T03:28:10.180Z,25.42
2022-12-23T03:29:08.370Z,25.00
2022-12-23T03:30:08.593Z,26.47
2022-12-23T03:31:08.834Z,29.67
2022-12-23T03:32:08.938Z,30.82
2022-12-23T03:33:08.342Z,31.23
2022-12-23T03:34:08.421Z,33.59
2022-12-23T03:35:08.163Z,29.35
2022-12-23T03:36:07.958Z,30.76
2022-12-23T03:37:07.934Z,27.99
2022-12-23T03:38:07.916Z,25.83
2022-12-23T03:39:07.993Z,27.33
2022-12-23T03:40:07.865Z,25.43
2022-12-23T03:41:07.816Z,25.81
2022-12-23T03:42:07.915Z,29.89
2022-12-23T03:43:08.122Z,27.41
2022-12-23T03:44:07.801Z,27.61
2022-12-23T03:46:07.844Z,28.72
2022-12-23T03:47:07.899Z,29.49
2022-12-23T03:48:07.790Z,30.97
2022-12-23T03:49:07.543Z,33.49
2022-12-23T03:50:07.509Z,36.15
2022-12-23T03:51:07.471Z,39.52
2022-12-23T03:52:07.414Z,44.15
2022-12-23T03:53:07.418Z,52.20
2022-12-23T03:54:07.332Z,55.59
2022-12-23T03:55:07.329Z,58.08
2022-12-23T03:56:07.295Z,54.32
2022-12-23T03:57:07.264Z,54.00
2022-12-23T03:58:07.252Z,55.48
2022-12-23T03:59:07.125Z,50.62
2022-12-23T04:00:07.102Z,52.57
2022-12-23T04:01:07.060Z,48.70
2022-12-23T04:02:07.550Z,45.66
2022-12-23T04:03:06.974Z,43.35
2022-12-23T04:04:07.549Z,42.68
2022-12-23T04:05:06.925Z,43.96
2022-12-23T04:06:06.851Z,41.05
2022-12-23T04:07:06.839Z,45.46
2022-12-23T04:08:06.776Z,46.56
2022-12-23T04:09:06.733Z,48.37
2022-12-23T04:10:06.682Z,45.79
2022-12-23T04:11:06.620Z,44.95
2022-12-23T04:12:06.589Z,41.12
2022-12-23T04:13:06.579Z,43.42
2022-12-23T04:14:06.882Z,44.81
2022-12-23T04:15:12.617Z,43.81
2022-12-23T04:16:06.517Z,43.96
2022-12-23T04:17:06.707Z,43.83
2022-12-23T04:18:06.412Z,40.95
2022-12-23T04:19:06.570Z,39.00
2022-12-23T04:20:06.500Z,43.49
2022-12-23T04:21:06.533Z,42.42
2022-12-23T04:22:06.243Z,41.86
2022-12-23T04:23:06.213Z,42.46
2022-12-23T04:24:06.181Z,36.93
2022-12-23T04:25:06.168Z,39.60
2022-12-23T04:26:06.104Z,41.91
2022-12-23T04:27:06.340Z,39.34
2022-12-23T04:28:06.138Z,38.58
2022-12-23T04:29:06.004Z,42.75
2022-12-23T04:30:06.034Z,44.24
2022-12-23T04:31:06.017Z,40.87
2022-12-23T04:32:06.082Z,42.07
2022-12-23T04:33:05.864Z,39.03
2022-12-23T04:34:06.176Z,37.55
2022-12-23T04:35:05.753Z,40.12
2022-12-23T04:36:05.718Z,40.50
2022-12-23T04:37:05.725Z,38.58
2022-12-23T04:38:05.923Z,37.95
2022-12-23T04:39:05.694Z,36.08
2022-12-23T04:40:05.575Z,41.06
2022-12-23T04:41:05.536Z,38.55
2022-12-23T04:42:05.441Z,47.06
2022-12-23T04:43:05.369Z,51.63
2022-12-23T04:44:05.314Z,51.80
2022-12-23T04:45:05.282Z,59.02
2022-12-23T04:46:05.247Z,55.46
2022-12-23T04:47:05.383Z,57.15
2022-12-23T04:48:05.220Z,57.19
2022-12-23T04:49:05.175Z,54.73
2022-12-23T04:50:05.039Z,62.17
2022-12-23T04:51:04.996Z,64.10
2022-12-23T04:52:04.906Z,64.92
2022-12-23T04:53:05.019Z,63.50
2022-12-23T04:54:04.866Z,56.91
2022-12-23T04:55:05.022Z,51.15
2022-12-23T04:56:04.866Z,53.26
2022-12-23T04:57:04.831Z,57.94
2022-12-23T04:58:04.669Z,49.57
2022-12-23T04:59:04.652Z,48.85
2022-12-23T05:00:04.606Z,46.55
2022-12-23T05:01:04.700Z,49.86
2022-12-23T05:02:04.666Z,53.44
2022-12-23T05:03:04.605Z,45.53
2022-12-23T05:04:04.439Z,49.09
2022-12-23T05:05:04.381Z,47.50
2022-12-23T05:06:04.326Z,47.13
2022-12-23T05:07:04.430Z,53.56
2022-12-23T05:08:05.471Z,54.95
2022-12-23T05:09:04.562Z,51.78
2022-12-23T05:10:04.347Z,52.14
2022-12-23T05:11:06.256Z,47.28
2022-12-23T05:12:04.861Z,49.07
2022-12-23T05:13:04.691Z,49.34
2022-12-23T05:14:04.989Z,49.39
2022-12-23T05:15:04.265Z,46.25
2022-12-23T05:16:04.156Z,49.82
2022-12-23T05:17:07.719Z,53.10
2022-12-23T05:18:04.239Z,49.15
2022-12-23T05:19:03.937Z,49.08
2022-12-23T05:20:03.842Z,44.50
2022-12-23T05:21:03.936Z,41.02
2022-12-23T05:22:04.491Z,44.24
2022-12-23T05:23:03.678Z,38.49
2022-12-23T05:24:03.624Z,48.88
2022-12-23T05:25:03.449Z,48.50
2022-12-23T05:26:03.541Z,45.78
2022-12-23T05:27:03.578Z,52.17
2022-12-23T05:28:03.583Z,56.28
2022-12-23T05:29:03.280Z,51.96
2022-12-23T05:30:03.376Z,50.32
2022-12-23T05:31:03.689Z,51.56
2022-12-23T05:32:03.251Z,61.16
2022-12-23T05:33:03.057Z,59.80
2022-12-23T05:34:06.581Z,59.49
2022-12-23T05:35:02.938Z,59.55
2022-12-23T05:36:03.369Z,60.71
2022-12-23T05:37:03.191Z,62.86
2022-12-23T05:38:03.200Z,62.88
2022-12-23T05:39:03.045Z,61.27
2022-12-23T05:40:03.176Z,64.23
2022-12-23T05:41:02.713Z,61.86
2022-12-23T05:42:02.876Z,72.34
2022-12-23T05:43:02.786Z,71.05
2022-12-23T05:44:02.537Z,70.95
2022-12-23T05:45:02.692Z,60.05
2022-12-23T05:46:02.867Z,55.19
2022-12-23T05:47:02.454Z,54.25
2022-12-23T05:48:02.478Z,52.89
2022-12-23T05:49:02.612Z,51.15
2022-12-23T05:50:02.996Z,50.36
2022-12-23T05:51:02.376Z,50.81
2022-12-23T05:52:02.257Z,54.40
2022-12-23T05:53:02.807Z,59.77
2022-12-23T05:54:02.425Z,55.59
2022-12-23T05:55:02.301Z,56.10
2022-12-23T05:56:02.188Z,55.75
2022-12-23T05:57:02.151Z,53.47
2022-12-23T05:58:02.000Z,50.59
2022-12-23T05:59:02.274Z,46.08
2022-12-23T06:00:01.985Z,56.41
2022-12-23T06:01:02.603Z,56.31
2022-12-23T06:02:02.272Z,53.29
2022-12-23T06:03:02.083Z,51.05
2022-12-23T06:04:02.183Z,44.48
2022-12-23T06:05:01.639Z,43.27
2022-12-23T06:06:01.843Z,48.94
2022-12-23T06:07:01.584Z,56.03
2022-12-23T06:08:01.617Z,55.38
2022-12-23T06:09:01.758Z,55.78
2022-12-23T06:10:01.464Z,63.93
2022-12-23T06:11:01.378Z,63.80
2022-12-23T06:12:01.560Z,69.71
2022-12-23T06:13:01.809Z,64.58
2022-12-23T06:14:01.457Z,57.53
2022-12-23T06:15:01.117Z,62.10
2022-12-23T06:16:01.643Z,64.26
2022-12-23T06:17:01.423Z,68.49
2022-12-23T06:18:01.142Z,67.82
2022-12-23T06:19:01.763Z,70.35
2022-12-23T06:20:01.550Z,67.61
2022-12-23T06:21:00.903Z,60.24
2022-12-23T06:22:01.174Z,61.29
2022-12-23T06:23:01.397Z,61.75
2022-12-23T06:24:00.860Z,61.88
2022-12-23T06:25:00.807Z,68.50
2022-12-23T06:26:00.802Z,68.31
2022-12-23T06:27:01.676Z,70.11
2022-12-23T06:28:01.549Z,60.23
2022-12-23T06:29:01.068Z,64.25
2022-12-23T06:30:00.756Z,62.06
2022-12-23T06:31:01.763Z,60.38
2022-12-23T06:32:00.797Z,54.79
2022-12-23T06:33:00.689Z,52.93
2022-12-23T06:34:00.686Z,46.43
2022-12-23T06:35:00.560Z,56.60
2022-12-23T06:36:00.400Z,54.27
2022-12-23T06:37:00.323Z,54.13
2022-12-23T06:38:00.338Z,60.35
2022-12-23T06:39:00.460Z,55.75
2022-12-23T06:40:00.220Z,56.39
2022-12-23T06:41:00.241Z,63.05
2022-12-23T06:42:00.170Z,58.85
2022-12-23T06:43:00.243Z,62.83
2022-12-23T06:44:00.134Z,62.50
2022-12-23T06:45:00.011Z,67.38
2022-12-23T06:46:00.045Z,63.94
2022-12-23T06:46:59.954Z,70.82
2022-12-23T06:47:59.896Z,61.62
2022-12-23T06:48:59.849Z,59.79
2022-12-23T06:49:59.798Z,55.66
2022-12-23T06:50:59.738Z,59.81
2022-12-23T06:51:59.657Z,69.58
2022-12-23T06:52:59.639Z,87.61
2022-12-23T06:53:59.563Z,86.80
2022-12-23T06:54:59.485Z,76.77
2022-12-23T06:55:59.449Z,65.86
2022-12-23T06:56:59.366Z,76.87
2022-12-23T06:57:59.315Z,74.96
2022-12-23T06:58:59.345Z,83.98
2022-12-23T06:59:59.259Z,81.32
2022-12-23T07:00:59.167Z,69.63
2022-12-23T07:01:59.392Z,71.94
2022-12-23T07:02:59.272Z,74.27
2022-12-23T07:03:58.988Z,68.94
2022-12-23T07:04:58.908Z,69.74
2022-12-23T07:05:58.837Z,76.32
2022-12-23T07:06:58.782Z,65.09
2022-12-23T07:07:58.739Z,68.64
2022-12-23T07:08:58.743Z,73.33
2022-12-23T07:09:58.663Z,69.48
2022-12-23T07:10:58.600Z,69.93
2022-12-23T07:11:58.536Z,64.68
2022-12-23T07:12:58.499Z,70.60
2022-12-23T07:13:58.455Z,69.67
2022-12-23T07:14:58.469Z,79.65
2022-12-23T07:15:58.407Z,78.55
2022-12-23T07:16:58.494Z,73.17
2022-12-23T07:17:58.306Z,84.59
2022-12-23T07:18:58.286Z,88.63
2022-12-23T07:19:58.252Z,75.06
2022-12-23T07:20:58.216Z,79.17
2022-12-23T07:21:58.211Z,70.48
2022-12-23T07:22:58.153Z,74.53
2022-12-23T07:23:58.125Z,82.68
2022-12-23T07:24:58.011Z,81.45
2022-12-23T07:25:57.969Z,85.07
2022-12-23T07:26:57.960Z,89.53
2022-12-23T07:27:57.951Z,81.79
2022-12-23T07:28:57.827Z,78.04
2022-12-23T07:29:57.807Z,72.94
2022-12-23T07:30:57.876Z,72.40
2022-12-23T07:31:57.815Z,73.63
2022-12-23T07:32:57.661Z,69.62
2022-12-23T07:33:57.631Z,79.46
2022-12-23T07:34:57.603Z,78.75
2022-12-23T07:35:57.561Z,83.74
2022-12-23T07:36:57.495Z,77.23
2022-12-23T07:37:57.438Z,72.42
2022-12-23T07:38:57.385Z,64.32
2022-12-23T07:39:57.350Z,68.30
2022-12-23T07:40:57.312Z,72.19
2022-12-23T07:42:25.163Z,70.47
2022-12-23T07:42:57.208Z,70.66
2022-12-23T07:43:57.219Z,70.59
2022-12-23T07:44:57.156Z,65.34
2022-12-23T07:46:00.395Z,70.88
2022-12-23T07:46:57.099Z,70.58
2022-12-23T07:47:56.977Z,67.04
2022-12-23T07:48:56.943Z,66.94
2022-12-23T07:49:56.897Z,66.30
2022-12-23T07:50:56.915Z,71.34
2022-12-23T07:51:56.802Z,71.78
2022-12-23T07:52:56.747Z,72.05
2022-12-23T07:53:56.702Z,66.51
2022-12-23T07:54:56.611Z,73.09
2022-12-23T07:55:57.084Z,65.49
2022-12-23T07:56:56.531Z,65.82
2022-12-23T07:57:56.492Z,68.23
2022-12-23T07:58:56.414Z,79.33
2022-12-23T07:59:57.218Z,68.07
2022-12-23T08:00:56.362Z,78.78
2022-12-23T08:01:56.433Z,65.49
2022-12-23T08:02:56.339Z,80.60
2022-12-23T08:03:56.205Z,70.55
2022-12-23T08:04:56.206Z,48.53
2022-12-23T08:05:56.059Z,42.80
2022-12-23T08:06:56.406Z,52.45
2022-12-23T08:07:55.996Z,43.64
2022-12-23T08:08:56.002Z,50.85
2022-12-23T08:09:55.897Z,63.99
2022-12-23T08:10:55.874Z,63.25
2022-12-23T08:11:55.756Z,53.90
2022-12-23T08:12:57.721Z,76.00
2022-12-23T08:13:56.168Z,76.27
2022-12-23T08:14:55.800Z,77.88
2022-12-23T08:15:55.737Z,82.41
2022-12-23T08:16:55.635Z,86.18
2022-12-23T08:17:55.886Z,92.27
2022-12-23T08:18:55.490Z,94.72
2022-12-23T08:19:55.517Z,95.61
2022-12-23T08:20:55.548Z,98.82
2022-12-23T08:21:55.363Z,94.16
2022-12-23T08:22:55.355Z,101.19
2022-12-23T08:23:55.275Z,105.64
2022-12-23T08:24:55.636Z,94.18
2022-12-23T08:25:55.324Z,84.23
2022-12-23T08:26:55.480Z,98.10
2022-12-23T08:27:55.895Z,95.39
2022-12-23T08:28:55.012Z,96.57
2022-12-23T08:29:55.868Z,90.69
2022-12-23T08:30:54.969Z,87.05
2022-12-23T08:31:54.893Z,81.70
2022-12-23T08:32:54.992Z,68.10
2022-12-23T08:33:54.746Z,79.04
2022-12-23T08:34:55.011Z,73.02
2022-12-23T08:35:54.613Z,75.51
2022-12-23T08:36:54.753Z,82.09
2022-12-23T08:37:54.715Z,79.53
2022-12-23T08:38:54.696Z,76.47
2022-12-23T08:39:54.493Z,85.78
2022-12-23T08:40:54.616Z,92.27
2022-12-23T08:41:54.477Z,90.67
2022-12-23T08:42:54.215Z,85.53
2022-12-23T08:43:54.423Z,96.92
2022-12-23T08:44:54.213Z,87.30
2022-12-23T08:45:54.248Z,81.28
2022-12-23T08:46:53.985Z,93.81
2022-12-23T08:47:53.910Z,97.13
2022-12-23T08:48:53.840Z,87.79
2022-12-23T08:49:53.924Z,77.79
2022-12-23T08:50:53.915Z,65.89
2022-12-23T08:51:53.663Z,86.24
2022-12-23T08:52:53.680Z,64.92
2022-12-23T08:53:59.604Z,66.86
2022-12-23T08:54:53.514Z,66.99
2022-12-23T08:55:53.380Z,59.90
2022-12-23T08:56:53.609Z,67.67
2022-12-23T08:57:53.245Z,67.65
2022-12-23T08:58:53.815Z,75.89
2022-12-23T08:59:53.777Z,77.91
2022-12-23T09:00:53.858Z,76.55
2022-12-23T09:01:53.656Z,81.58
2022-12-23T09:02:55.134Z,92.74
2022-12-23T09:03:53.415Z,79.84
2022-12-23T09:04:53.711Z,81.95
2022-12-23T09:05:53.337Z,79.12
2022-12-23T09:06:52.874Z,102.66
2022-12-23T09:07:53.381Z,89.52
2022-12-23T09:08:52.622Z,102.95
2022-12-23T09:09:52.579Z,101.66
2022-12-23T09:10:52.858Z,102.09
2022-12-23T09:11:52.488Z,102.78
2022-12-23T09:12:52.836Z,103.91
2022-12-23T09:13:52.430Z,108.49
2022-12-23T09:14:52.169Z,112.02
2022-12-23T09:15:52.062Z,99.10
2022-12-23T09:16:52.285Z,90.89
2022-12-23T09:17:52.212Z,93.10
2022-12-23T09:18:51.984Z,98.11
2022-12-23T09:19:53.170Z,102.45
2022-12-23T09:20:52.960Z,92.76
2022-12-23T09:21:52.540Z,89.36
2022-12-23T09:22:52.372Z,82.48
2022-12-23T09:23:51.752Z,88.79
2022-12-23T09:24:52.136Z,87.61
2022-12-23T09:25:52.735Z,88.15
2022-12-23T09:26:52.017Z,85.71
2022-12-23T09:27:52.644Z,83.33
2022-12-23T09:28:51.846Z,92.04
2022-12-23T09:29:51.933Z,101.46
2022-12-23T09:30:51.448Z,95.22
2022-12-23T09:31:51.481Z,88.69
2022-12-23T09:32:51.670Z,89.69
2022-12-23T09:33:51.441Z,92.52
2022-12-23T09:34:51.149Z,100.47
2022-12-23T09:35:51.139Z,102.31
2022-12-23T09:36:55.271Z,92.29
2022-12-23T09:37:50.675Z,92.44
2022-12-23T09:38:50.650Z,92.63
2022-12-23T09:39:50.600Z,82.95
2022-12-23T09:40:50.466Z,75.65
2022-12-23T09:41:50.401Z,79.50
2022-12-23T09:42:50.330Z,82.77
2022-12-23T09:43:50.204Z,74.81
2022-12-23T09:44:50.165Z,77.84
2022-12-23T09:45:50.110Z,77.55
2022-12-23T09:46:50.037Z,77.92
2022-12-23T09:47:49.924Z,91.70
2022-12-23T09:48:49.857Z,92.58
2022-12-23T09:49:49.809Z,98.08
2022-12-23T09:50:49.687Z,82.91
2022-12-23T09:51:49.659Z,92.57
2022-12-23T09:52:49.522Z,82.09
2022-12-23T09:53:49.428Z,107.58
2022-12-23T09:54:49.308Z,103.36
2022-12-23T09:55:49.312Z,118.20
2022-12-23T09:56:49.122Z,130.35
2022-12-23T09:57:49.095Z,113.21
2022-12-23T09:58:48.966Z,138.61
2022-12-23T09:59:48.894Z,132.22
2022-12-23T10:00:48.758Z,111.22
2022-12-23T10:01:48.899Z,126.45
2022-12-23T10:02:48.796Z,128.51
2022-12-23T10:03:48.768Z,125.25
2022-12-23T10:04:48.368Z,131.09
2022-12-23T10:05:48.353Z,119.68
2022-12-23T10:06:48.212Z,117.60
2022-12-23T10:07:48.153Z,111.35
2022-12-23T10:08:48.113Z,117.06
2022-12-23T10:09:48.027Z,103.08
2022-12-23T10:10:47.927Z,110.58
2022-12-23T10:11:47.862Z,117.76
2022-12-23T10:12:47.719Z,126.13
2022-12-23T10:13:47.743Z,119.71
2022-12-23T10:14:47.612Z,94.79
2022-12-23T10:15:47.618Z,95.47
2022-12-23T10:16:47.575Z,99.03
2022-12-23T10:17:47.395Z,96.19
2022-12-23T10:18:47.369Z,103.69
2022-12-23T10:19:47.288Z,88.79
2022-12-23T10:20:47.229Z,85.72
2022-12-23T10:21:48.064Z,103.73
2022-12-23T10:22:47.090Z,104.09
2022-12-23T10:23:47.009Z,121.70
2022-12-23T10:24:46.970Z,100.67
2022-12-23T10:25:46.898Z,90.08
2022-12-23T10:26:46.749Z,111.75
2022-12-23T10:27:46.765Z,130.72
2022-12-23T10:28:46.619Z,138.13
2022-12-23T10:29:46.534Z,149.89
2022-12-23T10:31:46.441Z,127.13
2022-12-23T10:32:46.336Z,120.11
2022-12-23T10:33:46.160Z,86.34
2022-12-23T10:34:46.012Z,72.89
2022-12-23T10:35:45.982Z,94.09
2022-12-23T10:36:45.900Z,67.69
2022-12-23T10:37:45.760Z,74.95
2022-12-23T10:38:45.662Z,79.48
2022-12-23T10:39:45.622Z,63.48
2022-12-23T10:40:45.561Z,80.67
2022-12-23T10:41:45.447Z,102.81
2022-12-23T10:42:45.319Z,94.56
2022-12-23T10:43:45.329Z,115.27
2022-12-23T10:44:45.248Z,118.34
2022-12-23T10:45:45.048Z,111.21
2022-12-23T10:46:45.070Z,105.22
2022-12-23T10:47:44.968Z,111.71
2022-12-23T10:48:44.776Z,133.28
2022-12-23T10:49:44.698Z,139.13
2022-12-23T10:50:44.614Z,144.50
2022-12-23T10:51:44.516Z,147.78
2022-12-23T10:52:44.468Z,139.44
2022-12-23T10:53:44.383Z,162.53
2022-12-23T10:54:44.279Z,142.25
2022-12-23T10:55:44.148Z,128.27
2022-12-23T10:56:44.037Z,153.63
2022-12-23T10:57:43.914Z,151.57
2022-12-23T10:58:43.838Z,148.79
2022-12-23T10:59:43.808Z,131.85
2022-12-23T11:00:43.696Z,128.82
2022-12-23T11:01:43.750Z,130.72
2022-12-23T12:46:34.207Z,127.93
2022-12-23T12:47:53.297Z,129.20
2022-12-23T12:48:33.920Z,129.25
2022-12-23T12:49:33.819Z,128.91
2022-12-23T12:50:33.744Z,129.59
2022-12-23T12:51:33.734Z,133.49
2022-12-23T12:52:33.594Z,143.01
2022-12-23T14:10:25.603Z,128.12
2022-12-23T14:11:25.464Z,122.36
2022-12-23T14:12:25.399Z,121.42
2022-12-23T14:13:25.364Z,118.13
2022-12-23T14:14:25.263Z,119.04
2022-12-23T14:15:25.213Z,118.95
2022-12-23T14:16:25.085Z,120.60
2022-12-23T14:17:24.868Z,117.41
2022-12-23T14:18:24.780Z,120.26
2022-12-23T14:19:24.760Z,115.80
2022-12-23T14:20:24.579Z,118.22
2022-12-23T14:21:24.498Z,119.80
2022-12-23T14:22:24.380Z,120.70
2022-12-23T14:23:25.242Z,122.58
2022-12-23T14:24:24.160Z,121.91
2022-12-23T14:25:24.106Z,121.85
2022-12-23T14:26:24.007Z,123.44
2022-12-23T14:27:23.905Z,123.24
2022-12-23T14:28:23.928Z,125.26
2022-12-23T14:29:23.963Z,125.57
2022-12-23T14:30:23.642Z,127.30
2022-12-23T14:35:23.092Z,107.78
2022-12-23T14:36:23.061Z,102.51
2022-12-23T14:37:22.994Z,100.99
2022-12-23T14:38:22.724Z,102.75
2022-12-23T14:39:22.666Z,114.48
2022-12-23T14:40:22.542Z,89.14
2022-12-23T14:41:22.483Z,83.60
2022-12-23T14:42:22.372Z,85.85
2022-12-23T14:43:22.556Z,91.00
2022-12-23T14:44:22.257Z,101.57
2022-12-23T14:45:22.080Z,106.23
2022-12-23T14:46:22.255Z,105.21
2022-12-23T14:47:22.743Z,108.38
2022-12-23T14:48:21.929Z,111.89
2022-12-23T14:49:39.571Z,117.63
2022-12-23T14:50:21.639Z,117.99
2022-12-23T14:51:21.484Z,119.06
2022-12-23T14:52:21.394Z,120.25
2022-12-23T14:53:21.390Z,123.11
2022-12-23T14:54:21.284Z,122.25
2022-12-23T14:55:30.286Z,121.74
2022-12-23T14:56:21.023Z,121.98
2022-12-23T14:57:20.928Z,121.96
2022-12-23T14:58:20.804Z,116.06
2022-12-23T14:59:20.734Z,108.59
2022-12-23T15:00:20.718Z,105.50
2022-12-23T15:01:20.751Z,106.83
2022-12-23T15:02:20.554Z,104.06
2022-12-23T15:03:20.569Z,105.88
2022-12-23T15:04:20.277Z,108.18
2022-12-23T15:05:20.305Z,114.21
2022-12-23T15:06:20.191Z,114.58
2022-12-23T15:07:20.173Z,115.41
2022-12-23T15:08:19.885Z,117.42
2022-12-23T15:09:19.896Z,116.17
2022-12-23T15:10:19.785Z,118.02
2022-12-23T15:11:19.607Z,118.90
2022-12-23T15:12:19.656Z,115.62
2022-12-23T15:13:20.677Z,113.39
2022-12-23T15:14:19.562Z,104.93
2022-12-23T15:15:19.389Z,104.81
2022-12-23T15:16:19.551Z,104.76
2022-12-23T15:17:19.224Z,106.45
2022-12-23T15:18:19.107Z,105.20
2022-12-23T15:19:19.099Z,101.79
2022-12-23T15:20:18.993Z,107.02
2022-12-23T15:21:18.849Z,108.11
2022-12-23T15:22:25.299Z,107.16
2022-12-23T15:23:18.847Z,107.36
2022-12-23T15:24:18.648Z,108.06
2022-12-23T15:25:18.422Z,109.60
2022-12-23T15:26:18.342Z,112.18
2022-12-23T15:27:27.269Z,117.80
2022-12-23T15:28:18.295Z,107.69
2022-12-23T15:29:18.182Z,109.28
2022-12-23T15:30:18.055Z,111.26
2022-12-23T15:31:17.927Z,117.27
2022-12-23T15:32:17.940Z,121.64
2022-12-23T15:33:52.058Z,127.77
2022-12-23T15:34:17.849Z,128.08
2022-12-23T15:35:17.732Z,128.86
2022-12-23T15:36:17.576Z,129.29
2022-12-23T15:37:17.366Z,129.72
2022-12-23T15:38:17.332Z,132.39
2022-12-23T15:39:17.271Z,126.90
2022-12-23T15:40:17.120Z,124.49
2022-12-23T15:41:17.065Z,127.17
2022-12-23T15:42:16.951Z,131.73
2022-12-23T15:43:16.843Z,131.51
2022-12-23T15:44:16.744Z,137.00
2022-12-23T15:45:16.643Z,134.11
2022-12-23T15:46:16.655Z,136.15
2022-12-23T15:47:16.529Z,137.80
2022-12-23T15:48:16.388Z,132.09
2022-12-23T15:49:16.385Z,128.90
2022-12-23T15:50:16.302Z,132.33
2022-12-23T15:51:30.535Z,125.89
2022-12-23T15:52:20.519Z,126.18
2022-12-23T15:53:16.161Z,126.32
2022-12-23T15:54:16.231Z,126.75
2022-12-23T15:55:16.096Z,127.32
2022-12-23T15:56:15.927Z,129.41
2022-12-23T15:57:15.855Z,134.03
2022-12-23T15:58:15.853Z,132.96
2022-12-23T15:59:15.744Z,132.92
2022-12-23T16:00:15.586Z,133.32
2022-12-23T16:01:15.471Z,133.70
2022-12-23T16:02:49.533Z,133.91
2022-12-23T16:03:16.170Z,134.01
2022-12-23T16:04:15.328Z,133.95
2022-12-23T16:05:15.168Z,134.12
2022-12-23T16:06:15.124Z,134.80
2022-12-23T16:07:15.007Z,134.34
2022-12-23T16:08:15.043Z,132.59
2022-12-23T16:09:14.890Z,132.78
2022-12-23T16:10:14.805Z,134.46
2022-12-23T16:11:14.761Z,134.28
2022-12-23T16:12:14.596Z,130.15
2022-12-23T16:13:14.516Z,129.94
2022-12-23T16:14:14.464Z,128.26
2022-12-23T16:15:14.331Z,124.43
2022-12-23T16:16:15.268Z,122.48
2022-12-23T16:17:14.253Z,123.90
2022-12-23T16:18:14.239Z,121.48
2022-12-23T16:19:14.024Z,122.78
2022-12-23T16:20:13.975Z,127.34
2022-12-23T16:21:13.859Z,124.09
2022-12-23T16:22:13.782Z,126.35
2022-12-23T16:23:13.770Z,129.48
2022-12-23T16:24:13.645Z,129.57
2022-12-23T16:25:13.514Z,131.00
2022-12-23T16:26:13.420Z,128.10
2022-12-23T16:27:13.344Z,128.32
2022-12-23T16:28:13.316Z,125.30
2022-12-23T16:29:13.238Z,127.12
2022-12-23T16:30:13.104Z,125.47
2022-12-23T16:31:13.097Z,126.86
2022-12-23T16:32:13.050Z,126.21
2022-12-23T16:33:12.851Z,128.39
2022-12-23T16:34:12.742Z,125.58
2022-12-23T16:35:12.689Z,127.37
2022-12-23T16:36:12.608Z,128.93
2022-12-23T16:37:12.544Z,128.35
2022-12-23T16:38:12.407Z,132.27
2022-12-23T16:39:12.384Z,131.67
2022-12-23T16:40:12.220Z,132.70
2022-12-23T16:41:12.204Z,134.01
2022-12-23T16:42:12.197Z,132.66
2022-12-23T16:43:12.035Z,133.16
2022-12-23T16:44:11.927Z,133.94
2022-12-23T16:45:11.794Z,131.64
2022-12-23T16:46:11.947Z,132.41
2022-12-23T16:47:11.665Z,132.26
2022-12-23T16:48:11.636Z,131.42
2022-12-23T16:49:11.471Z,132.86
2022-12-23T16:50:11.358Z,128.40
2022-12-23T16:51:11.255Z,132.11
2022-12-23T16:52:11.203Z,132.94
2022-12-23T16:53:11.072Z,131.70
2022-12-23T16:54:11.000Z,130.34
2022-12-23T16:55:10.925Z,127.95
2022-12-23T16:56:10.815Z,128.97
2022-12-23T16:57:10.788Z,127.16
2022-12-23T16:58:10.647Z,125.47
2022-12-23T16:59:10.558Z,125.38
2022-12-23T17:00:10.486Z,125.62
2022-12-23T17:01:10.486Z,127.01
2022-12-23T17:02:10.405Z,127.28
2022-12-23T17:03:10.239Z,123.42
2022-12-23T17:04:10.187Z,123.32
2022-12-23T17:05:10.060Z,123.87
2022-12-23T17:06:09.980Z,125.32
2022-12-23T17:07:09.919Z,130.00
2022-12-23T17:08:09.928Z,129.19
2022-12-23T17:09:09.813Z,129.69
2022-12-23T17:10:09.716Z,128.57
2022-12-23T17:11:09.665Z,127.37
2022-12-23T17:12:09.543Z,129.16
2022-12-23T17:13:09.458Z,126.92
2022-12-23T17:14:13.693Z,130.24
2022-12-23T17:15:09.413Z,130.44
2022-12-23T17:16:09.897Z,130.68
2022-12-23T17:17:09.154Z,131.15
2022-12-23T17:18:08.989Z,131.00
2022-12-23T17:19:08.942Z,130.92
2022-12-23T17:20:08.943Z,129.96
2022-12-23T17:21:08.759Z,130.73
2022-12-23T17:22:08.721Z,129.75
2022-12-23T17:23:08.663Z,130.70
2022-12-23T17:24:08.583Z,130.67
2022-12-23T17:25:08.458Z,131.36
2022-12-23T17:26:08.534Z,131.70
2022-12-23T17:27:08.382Z,128.51
2022-12-23T17:28:08.287Z,132.85
2022-12-23T17:29:08.295Z,129.24
2022-12-23T17:30:08.107Z,125.46
2022-12-23T17:31:14.203Z,121.79
2022-12-23T17:32:08.035Z,121.82
2022-12-23T17:33:07.810Z,120.87
2022-12-23T17:34:07.774Z,118.62
2022-12-23T17:35:07.718Z,114.49
2022-12-23T17:36:07.676Z,106.19
2022-12-23T17:37:07.602Z,103.05
2022-12-23T17:38:07.698Z,100.52
2022-12-23T17:39:07.521Z,99.57
2022-12-23T17:40:07.336Z,95.00
2022-12-23T17:41:07.211Z,93.64
2022-12-23T17:42:07.437Z,94.98
2022-12-23T17:43:07.007Z,89.79
2022-12-23T17:44:07.096Z,88.71
2022-12-23T17:45:07.350Z,90.02
2022-12-23T17:46:06.844Z,88.26
2022-12-23T17:47:06.652Z,89.17
2022-12-23T17:48:06.685Z,89.39
2022-12-23T17:49:06.777Z,94.12
2022-12-23T17:50:06.441Z,99.09
2022-12-23T17:51:06.475Z,100.85
2022-12-23T17:52:06.433Z,105.32
2022-12-23T17:53:06.264Z,110.01
2022-12-23T17:54:06.104Z,109.12
2022-12-23T17:55:06.073Z,112.29
2022-12-23T17:56:05.967Z,108.57
2022-12-23T17:57:06.072Z,114.03
2022-12-23T17:58:05.722Z,114.62
2022-12-23T17:59:05.722Z,112.83
2022-12-23T18:00:05.679Z,116.11
2022-12-23T18:01:06.080Z,115.70
2022-12-23T18:02:05.457Z,115.57
2022-12-23T18:03:05.332Z,121.54
2022-12-23T18:04:05.218Z,127.63
2022-12-23T18:05:05.427Z,121.57
2022-12-23T18:06:05.341Z,115.35
2022-12-23T18:07:05.006Z,117.46
2022-12-23T18:08:04.946Z,117.65
2022-12-23T18:09:05.338Z,118.06
2022-12-23T18:10:05.120Z,121.08
2022-12-23T18:11:05.201Z,175.85
2022-12-23T18:12:04.867Z,201.93
2022-12-23T18:13:04.734Z,161.44
2022-12-23T18:14:04.640Z,142.69
2022-12-23T18:15:04.693Z,159.54
2022-12-23T18:16:04.490Z,142.02
2022-12-23T18:17:04.292Z,121.42
2022-12-23T18:18:04.361Z,110.70
2022-12-23T18:19:04.356Z,96.62
2022-12-23T18:20:04.227Z,81.92